createdAt,value
2023-09-25T00:01:22.776Z,100.00
2023-09-25T00:03:50.293Z,100.00
2023-09-25T00:06:17.275Z,100.00
2023-09-25T00:08:44.053Z,100.00
2023-09-25T00:11:10.724Z,100.00
2023-09-25T00:13:37.395Z,100.00
2023-09-25T00:16:04.543Z,100.00
2023-09-25T00:18:31.338Z,100.00
2023-09-25T00:20:58.044Z,100.00
2023-09-25T00:23:24.743Z,100.00
2023-09-25T00:25:52.121Z,100.00
2023-09-25T00:28:18.897Z,100.00
2023-09-25T00:30:45.838Z,100.00
2023-09-25T00:33:13.234Z,100.00
2023-09-25T00:35:43.572Z,100.00
2023-09-25T00:38:11.704Z,100.00
2023-09-25T00:40:39.348Z,100.00
2023-09-25T00:43:09.130Z,100.00
2023-09-25T00:45:39.223Z,100.00
2023-09-25T00:48:06.776Z,100.00
2023-09-25T00:50:35.291Z,100.00
2023-09-25T00:53:07.279Z,100.00
2023-09-25T00:55:35.575Z,100.00
2023-09-25T00:58:02.898Z,100.00
2023-09-25T01:00:29.555Z,100.00
2023-09-25T01:02:56.806Z,100.00
2023-09-25T01:05:24.148Z,100.00
2023-09-25T01:07:50.913Z,100.00
2023-09-25T01:10:19.117Z,100.00
2023-09-25T01:12:49.027Z,100.00
2023-09-25T01:15:16.964Z,100.00
2023-09-25T01:17:44.760Z,100.00
2023-09-25T01:20:14.864Z,100.00
2023-09-25T01:22:43.435Z,100.00
2023-09-25T01:25:13.767Z,100.00
2023-09-25T01:27:43.332Z,100.00
2023-09-25T01:30:15.033Z,100.00
2023-09-25T01:32:45.317Z,100.00
2023-09-25T01:35:16.344Z,100.00
2023-09-25T01:37:43.597Z,100.00
2023-09-25T01:40:19.011Z,100.00
2023-09-25T01:42:47.803Z,100.00
2023-09-25T01:45:20.529Z,100.00
2023-09-25T01:47:52.017Z,100.00
2023-09-25T01:50:20.809Z,100.00
2023-09-25T01:52:49.018Z,100.00
2023-09-25T01:55:16.442Z,100.00
2023-09-25T01:57:43.486Z,100.00
2023-09-25T02:00:11.130Z,100.00
2023-09-25T02:02:44.202Z,100.00
2023-09-25T02:05:11.613Z,100.00
2023-09-25T02:07:38.892Z,100.00
2023-09-25T02:10:06.734Z,100.00
2023-09-25T02:12:33.935Z,100.00
2023-09-25T02:15:03.346Z,100.00
2023-09-25T02:17:30.460Z,100.00
2023-09-25T02:20:13.386Z,100.00
2023-09-25T02:22:41.428Z,100.00
2023-09-25T02:25:09.871Z,100.00
2023-09-25T02:27:37.606Z,100.00
2023-09-25T02:30:05.284Z,100.00
2023-09-25T02:32:31.954Z,100.00
2023-09-25T02:34:58.546Z,100.00
2023-09-25T02:37:25.258Z,100.00
2023-09-25T02:39:51.839Z,100.00
2023-09-25T02:42:18.601Z,100.00
2023-09-25T02:44:45.312Z,100.00
2023-09-25T02:47:11.963Z,100.00
2023-09-25T02:49:39.444Z,100.00
2023-09-25T02:52:07.020Z,100.00
2023-09-25T02:54:33.757Z,100.00
2023-09-25T02:57:00.708Z,100.00
2023-09-25T02:59:28.315Z,100.00
2023-09-25T03:01:55.177Z,100.00
2023-09-25T03:04:22.713Z,100.00
2023-09-25T03:06:49.430Z,100.00
2023-09-25T03:09:16.175Z,100.00
2023-09-25T03:11:45.133Z,100.00
2023-09-25T03:14:12.081Z,100.00
2023-09-25T03:16:40.888Z,100.00
2023-09-25T03:19:07.546Z,100.00
2023-09-25T03:21:35.140Z,100.00
2023-09-25T03:24:01.796Z,100.00
2023-09-25T03:26:28.512Z,100.00
2023-09-25T03:28:55.252Z,100.00
2023-09-25T03:31:22.173Z,100.00
2023-09-25T03:33:49.016Z,100.00
2023-09-25T03:36:16.024Z,100.00
2023-09-25T03:38:43.128Z,100.00
2023-09-25T03:41:10.227Z,100.00
2023-09-25T03:43:37.068Z,100.00
2023-09-25T03:46:03.787Z,100.00
2023-09-25T03:48:30.557Z,100.00
2023-09-25T03:50:57.438Z,100.00
2023-09-25T03:53:24.091Z,100.00
2023-09-25T03:55:50.900Z,100.00
2023-09-25T03:58:17.612Z,100.00
2023-09-25T04:00:44.491Z,100.00
2023-09-25T04:03:12.715Z,100.00
2023-09-25T04:05:39.744Z,100.00
2023-09-25T04:08:06.630Z,100.00
2023-09-25T04:10:33.793Z,100.00
2023-09-25T04:13:00.528Z,100.00
2023-09-25T04:15:27.634Z,100.00
2023-09-25T04:17:54.482Z,100.00
2023-09-25T04:20:25.488Z,100.00
2023-09-25T04:22:53.795Z,100.00
2023-09-25T04:25:21.018Z,100.00
2023-09-25T04:27:56.135Z,100.00
2023-09-25T04:30:25.000Z,100.00
2023-09-25T04:32:55.841Z,100.00
2023-09-25T04:35:23.365Z,100.00
2023-09-25T04:37:50.071Z,100.00
2023-09-25T04:40:24.746Z,100.00
2023-09-25T04:42:52.735Z,100.00
2023-09-25T04:45:20.242Z,100.00
2023-09-25T04:47:48.274Z,100.00
2023-09-25T04:50:15.049Z,100.00
2023-09-25T04:52:43.215Z,100.00
2023-09-25T04:55:13.803Z,100.00
2023-09-25T04:57:46.407Z,100.00
2023-09-25T05:00:28.164Z,100.00
2023-09-25T05:02:57.555Z,100.00
2023-09-25T05:05:24.786Z,100.00
2023-09-25T05:07:53.480Z,100.00
2023-09-25T05:10:28.356Z,100.00
2023-09-25T05:12:56.741Z,100.00
2023-09-25T05:15:23.982Z,100.00
2023-09-25T05:17:51.352Z,100.00
2023-09-25T05:20:23.647Z,100.00
2023-09-25T05:22:55.755Z,100.00
2023-09-25T05:25:23.935Z,100.00
2023-09-25T05:27:53.103Z,100.00
2023-09-25T05:30:20.442Z,100.00
2023-09-25T05:32:51.836Z,100.00
2023-09-25T05:35:19.342Z,100.00
2023-09-25T05:37:47.512Z,100.00
2023-09-25T05:40:16.062Z,100.00
2023-09-25T05:42:45.220Z,100.00
2023-09-25T05:45:13.210Z,100.00
2023-09-25T05:47:40.409Z,100.00
2023-09-25T05:50:08.230Z,100.00
2023-09-25T05:52:36.131Z,100.00
2023-09-25T05:55:05.576Z,100.00
2023-09-25T05:57:32.658Z,100.00
2023-09-25T06:00:05.037Z,100.00
2023-09-25T06:02:37.096Z,100.00
2023-09-25T06:05:04.774Z,100.00
2023-09-25T06:07:31.591Z,100.00
2023-09-25T06:09:58.526Z,100.00
2023-09-25T06:12:25.262Z,100.00
2023-09-25T06:14:51.852Z,100.00
2023-09-25T06:17:18.509Z,100.00
2023-09-25T06:19:45.234Z,100.00
2023-09-25T06:22:11.980Z,100.00
2023-09-25T06:24:38.721Z,100.00
2023-09-25T06:27:05.979Z,100.00
2023-09-25T06:29:32.818Z,100.00
2023-09-25T06:32:02.228Z,100.00
2023-09-25T06:34:29.549Z,100.00
2023-09-25T06:36:56.665Z,100.00
2023-09-25T06:39:24.585Z,100.00
2023-09-25T06:41:52.182Z,100.00
2023-09-25T06:44:20.414Z,100.00
2023-09-25T06:46:47.515Z,100.00
2023-09-25T06:49:14.377Z,100.00
2023-09-25T06:51:41.326Z,100.00
2023-09-25T06:54:10.155Z,100.00
2023-09-25T06:56:37.297Z,93.17
2023-09-25T06:59:04.496Z,80.93
2023-09-25T07:01:31.626Z,73.39
2023-09-25T07:03:58.882Z,63.11
2023-09-25T07:06:26.098Z,54.13
2023-09-25T07:08:53.156Z,52.84
2023-09-25T07:11:20.378Z,50.73
2023-09-25T07:13:48.847Z,49.29
2023-09-25T07:16:15.528Z,44.61
2023-09-25T07:18:42.565Z,42.74
2023-09-25T07:21:09.436Z,42.30
2023-09-25T07:23:36.123Z,41.97
2023-09-25T07:26:10.985Z,39.88
2023-09-25T07:28:38.099Z,40.26
2023-09-25T07:31:06.452Z,38.13
2023-09-25T07:33:34.832Z,39.99
2023-09-25T07:36:03.735Z,38.66
2023-09-25T07:38:32.779Z,38.77
2023-09-25T07:41:02.261Z,37.22
2023-09-25T07:46:02.731Z,36.43
2023-09-25T07:48:32.658Z,34.52
2023-09-25T07:50:59.712Z,34.39
2023-09-25T07:53:29.530Z,35.24
2023-09-25T07:55:56.680Z,34.82
2023-09-25T07:58:23.741Z,34.20
2023-09-25T08:00:52.104Z,35.36
2023-09-25T08:03:23.381Z,34.67
2023-09-25T08:05:50.445Z,33.43
2023-09-25T08:08:17.084Z,32.67
2023-09-25T08:10:48.222Z,32.63
2023-09-25T08:13:16.603Z,34.48
2023-09-25T08:15:43.476Z,30.02
2023-09-25T08:18:10.387Z,31.69
2023-09-25T08:20:37.544Z,33.04
2023-09-25T08:23:04.547Z,33.60
2023-09-25T08:25:31.753Z,34.04
2023-09-25T08:27:59.124Z,34.38
2023-09-25T08:30:26.096Z,36.15
2023-09-25T08:32:54.998Z,34.23
2023-09-25T08:35:22.038Z,33.97
2023-09-25T08:37:49.202Z,33.87
2023-09-25T08:40:15.992Z,40.70
2023-09-25T08:42:44.337Z,42.27
2023-09-25T08:45:11.198Z,45.70
2023-09-25T08:47:40.024Z,42.94
2023-09-25T08:50:09.811Z,43.61
2023-09-25T08:52:37.025Z,36.94
2023-09-25T08:55:05.076Z,41.09
2023-09-25T08:57:32.193Z,44.89
2023-09-25T09:00:04.431Z,44.08
2023-09-25T09:02:31.471Z,39.37
2023-09-25T09:04:59.584Z,35.77
2023-09-25T09:07:26.250Z,31.67
2023-09-25T09:09:53.149Z,32.44
2023-09-25T09:12:20.066Z,31.12
2023-09-25T09:14:46.972Z,33.56
2023-09-25T09:17:13.775Z,37.02
2023-09-25T09:19:53.689Z,34.51
2023-09-25T09:22:22.920Z,33.70
2023-09-25T09:24:54.304Z,31.83
2023-09-25T09:27:25.091Z,29.78
2023-09-25T09:29:57.971Z,28.74
2023-09-25T09:32:28.049Z,31.93
2023-09-25T09:34:54.768Z,33.20
2023-09-25T09:37:23.086Z,36.23
2023-09-25T09:39:53.512Z,40.05
2023-09-25T09:42:22.355Z,38.52
2023-09-25T09:44:49.428Z,35.32
2023-09-25T09:47:17.215Z,34.18
2023-09-25T09:49:45.468Z,34.42
2023-09-25T09:52:13.523Z,36.75
2023-09-25T09:54:43.633Z,36.99
2023-09-25T09:57:11.881Z,37.01
2023-09-25T09:59:38.652Z,38.62
2023-09-25T10:02:07.316Z,39.51
2023-09-25T10:04:34.918Z,42.01
2023-09-25T10:07:06.808Z,38.11
2023-09-25T10:09:34.116Z,37.95
2023-09-25T10:12:03.433Z,39.80
2023-09-25T10:14:41.390Z,37.20
2023-09-25T10:17:08.296Z,38.96
2023-09-25T10:19:37.892Z,40.42
2023-09-25T10:22:27.562Z,36.95
2023-09-25T10:25:05.730Z,37.55
2023-09-25T10:27:33.722Z,37.69
2023-09-25T10:30:15.033Z,39.17
2023-09-25T10:32:43.723Z,40.55
2023-09-25T10:35:37.186Z,37.34
2023-09-25T10:38:42.615Z,37.51
2023-09-25T10:41:09.576Z,36.21
2023-09-25T10:43:37.306Z,37.24
2023-09-25T10:46:04.782Z,38.07
2023-09-25T10:48:33.659Z,36.27
2023-09-25T10:51:00.429Z,36.54
2023-09-25T10:53:28.175Z,35.79
2023-09-25T10:55:58.241Z,38.82
2023-09-25T10:58:25.080Z,36.91
2023-09-25T11:00:52.299Z,39.72
2023-09-25T11:03:19.345Z,39.46
2023-09-25T11:05:46.330Z,42.87
2023-09-25T11:08:17.455Z,41.17
2023-09-25T11:10:46.190Z,37.85
2023-09-25T11:13:13.089Z,37.72
2023-09-25T11:15:40.724Z,36.51
2023-09-25T11:18:11.877Z,36.76
2023-09-25T11:20:40.060Z,37.72
2023-09-25T11:23:20.009Z,40.55
2023-09-25T11:25:51.361Z,41.58
2023-09-25T11:28:21.319Z,40.57
2023-09-25T11:30:49.190Z,39.22
2023-09-25T11:33:21.090Z,38.04
2023-09-25T11:35:50.664Z,38.34
2023-09-25T11:38:26.458Z,40.68
2023-09-25T11:40:56.431Z,39.97
2023-09-25T11:43:25.884Z,39.17
2023-09-25T11:45:52.908Z,39.66
2023-09-25T11:48:20.011Z,40.46
2023-09-25T11:50:47.360Z,43.44
2023-09-25T11:53:14.069Z,43.28
2023-09-25T11:55:40.811Z,41.59
2023-09-25T11:58:09.918Z,42.24
2023-09-25T12:00:37.459Z,40.71
2023-09-25T12:03:09.147Z,40.07
2023-09-25T12:05:36.973Z,39.14
2023-09-25T12:08:05.818Z,38.95
2023-09-25T12:10:39.411Z,38.07
2023-09-25T12:13:07.725Z,37.92
2023-09-25T12:15:34.987Z,37.42
2023-09-25T12:18:01.854Z,36.46
2023-09-25T12:20:29.183Z,36.59
2023-09-25T12:22:56.358Z,37.56
2023-09-25T12:25:23.822Z,36.96
2023-09-25T12:27:50.690Z,37.45
2023-09-25T12:30:18.759Z,36.95
2023-09-25T12:32:50.114Z,35.91
2023-09-25T12:35:17.715Z,35.65
2023-09-25T12:37:45.721Z,36.01
2023-09-25T12:40:15.065Z,35.83
2023-09-25T12:42:54.064Z,36.12
2023-09-25T12:45:22.802Z,36.62
2023-09-25T12:47:50.060Z,36.30
2023-09-25T12:50:16.752Z,37.11
2023-09-25T12:52:43.724Z,37.35
2023-09-25T12:55:10.601Z,36.66
2023-09-25T12:57:37.428Z,36.44
2023-09-25T13:00:06.159Z,36.20
2023-09-25T13:02:33.249Z,36.01
2023-09-25T13:05:00.405Z,34.28
2023-09-25T13:07:27.244Z,35.23
2023-09-25T13:09:54.276Z,35.06
2023-09-25T13:12:21.175Z,35.04
2023-09-25T13:14:47.947Z,34.74
2023-09-25T13:17:17.755Z,35.32
2023-09-25T13:19:47.478Z,35.04
2023-09-25T13:22:33.170Z,35.64
2023-09-25T13:25:02.456Z,35.65
2023-09-25T13:27:34.289Z,35.72
2023-09-25T13:30:01.436Z,35.99
2023-09-25T13:32:28.318Z,36.21
2023-09-25T13:34:55.427Z,36.53
2023-09-25T13:37:22.138Z,37.12
2023-09-25T13:39:49.024Z,36.72
2023-09-25T13:42:15.699Z,37.57
2023-09-25T13:44:46.047Z,36.45
2023-09-25T13:47:15.264Z,37.01
2023-09-25T13:49:44.840Z,36.43
2023-09-25T13:52:12.578Z,36.29
2023-09-25T13:54:39.678Z,37.03
2023-09-25T13:57:06.542Z,37.22
2023-09-25T13:59:34.403Z,36.27
2023-09-25T14:02:01.378Z,35.90
2023-09-25T14:04:29.140Z,36.48
2023-09-25T14:06:56.504Z,36.67
2023-09-25T14:09:25.731Z,36.88
2023-09-25T14:11:54.272Z,36.63
2023-09-25T14:14:22.225Z,36.91
2023-09-25T14:16:48.919Z,35.94
2023-09-25T14:19:15.515Z,35.90
2023-09-25T14:21:42.227Z,35.86
2023-09-25T14:24:08.957Z,35.67
2023-09-25T14:26:35.653Z,35.42
2023-09-25T14:29:02.455Z,35.98
2023-09-25T14:31:29.311Z,35.08
2023-09-25T14:33:58.704Z,34.66
2023-09-25T14:36:26.718Z,35.30
2023-09-25T14:38:53.424Z,35.03
2023-09-25T14:41:20.213Z,35.43
2023-09-25T14:43:46.890Z,35.54
2023-09-25T14:46:13.801Z,35.51
2023-09-25T14:48:47.125Z,34.58
2023-09-25T14:51:17.076Z,34.18
2023-09-25T14:53:43.753Z,34.03
2023-09-25T14:56:13.060Z,34.05
2023-09-25T14:58:40.393Z,34.94
2023-09-25T15:01:08.967Z,35.30
2023-09-25T15:03:35.997Z,34.82
2023-09-25T15:06:02.865Z,34.79
2023-09-25T15:08:29.771Z,34.66
2023-09-25T15:10:58.539Z,34.57
2023-09-25T15:13:25.593Z,34.69
2023-09-25T15:15:53.316Z,33.50
2023-09-25T15:18:20.159Z,34.52
2023-09-25T15:20:47.723Z,33.65
2023-09-25T15:23:14.549Z,33.96
2023-09-25T15:25:50.687Z,34.09
2023-09-25T15:28:18.229Z,34.21
2023-09-25T16:42:11.365Z,37.76
2023-09-25T16:44:38.918Z,37.80
2023-09-25T16:47:05.733Z,38.11
2023-09-25T16:49:32.747Z,37.68
2023-09-25T16:51:59.542Z,37.82
2023-09-25T16:54:26.414Z,38.41
2023-09-25T16:56:52.977Z,38.04
2023-09-25T16:59:19.647Z,38.12
2023-09-25T17:01:46.897Z,39.15
2023-09-25T17:04:16.001Z,39.90
2023-09-25T17:06:42.655Z,40.72
2023-09-25T17:09:10.062Z,42.02
2023-09-25T17:11:37.269Z,43.21
2023-09-25T17:14:06.038Z,44.28
2023-09-25T17:16:32.975Z,45.70
2023-09-25T17:19:00.331Z,46.58
2023-09-25T17:21:27.198Z,47.94
2023-09-25T17:23:54.352Z,49.22
2023-09-25T17:26:21.757Z,50.07
2023-09-25T17:28:52.012Z,51.27
2023-09-25T17:31:20.504Z,53.84
2023-09-25T17:33:51.300Z,53.47
2023-09-25T17:36:18.660Z,53.43
2023-09-25T17:38:45.765Z,53.81
2023-09-25T17:41:12.480Z,54.93
2023-09-25T17:43:39.617Z,56.61
2023-09-25T17:46:09.153Z,58.77
2023-09-25T17:48:40.645Z,60.81
2023-09-25T17:51:07.555Z,58.98
2023-09-25T17:53:34.355Z,59.92
2023-09-25T17:56:01.259Z,63.68
2023-09-25T17:58:31.566Z,63.17
2023-09-25T18:01:02.117Z,63.16
2023-09-25T18:03:30.155Z,64.74
2023-09-25T18:05:57.383Z,64.22
2023-09-25T18:08:27.357Z,64.98
2023-09-25T18:10:54.084Z,64.27
2023-09-25T18:13:22.156Z,69.01
2023-09-25T18:15:50.782Z,68.98
2023-09-25T18:18:17.916Z,71.07
2023-09-25T18:20:45.084Z,70.50
2023-09-25T18:23:12.154Z,73.19
2023-09-25T18:25:42.982Z,74.52
2023-09-25T18:28:09.865Z,76.57
2023-09-25T18:30:39.259Z,77.52
2023-09-25T18:33:10.881Z,79.56
2023-09-25T18:35:38.628Z,82.61
2023-09-25T18:38:05.232Z,84.04
2023-09-25T18:40:35.348Z,85.34
2023-09-25T18:43:04.311Z,86.03
2023-09-25T18:45:31.303Z,85.22
2023-09-25T18:47:58.500Z,86.68
2023-09-25T18:50:25.676Z,88.45
2023-09-25T18:52:52.439Z,89.56
2023-09-25T18:55:19.521Z,91.15
2023-09-25T18:57:46.244Z,91.77
2023-09-25T19:00:13.413Z,93.30
2023-09-25T19:02:40.378Z,92.88
2023-09-25T19:05:07.666Z,92.84
2023-09-25T19:07:35.622Z,93.35
2023-09-25T19:10:04.391Z,94.29
2023-09-25T19:12:32.005Z,95.15
2023-09-25T19:14:58.863Z,96.83
2023-09-25T19:17:26.090Z,98.36
2023-09-25T19:19:52.936Z,99.97
2023-09-25T19:22:20.006Z,100.00
2023-09-25T19:24:46.904Z,100.00
2023-09-25T19:27:14.603Z,100.00
2023-09-25T19:29:41.398Z,100.00
2023-09-25T19:32:08.196Z,100.00
2023-09-25T19:34:37.736Z,100.00
2023-09-25T19:37:05.402Z,100.00
2023-09-25T19:39:32.624Z,100.00
2023-09-25T19:41:59.375Z,100.00
2023-09-25T19:44:26.155Z,100.00
2023-09-25T19:46:53.039Z,100.00
2023-09-25T19:49:22.562Z,100.00
2023-09-25T19:51:50.630Z,100.00
2023-09-25T19:54:17.690Z,100.00
2023-09-25T19:56:44.618Z,100.00
2023-09-25T19:59:11.483Z,100.00
2023-09-25T20:01:38.329Z,100.00
2023-09-25T20:04:05.365Z,100.00
2023-09-25T20:06:32.158Z,100.00
2023-09-25T20:08:59.020Z,100.00
2023-09-25T20:11:25.991Z,100.00
2023-09-25T20:13:53.473Z,100.00
2023-09-25T20:16:21.346Z,100.00
2023-09-25T20:18:48.394Z,100.00
2023-09-25T20:21:15.623Z,100.00
2023-09-25T20:23:43.346Z,100.00
2023-09-25T20:26:11.322Z,100.00
2023-09-25T20:28:38.859Z,100.00
2023-09-25T20:31:06.108Z,100.00
2023-09-25T20:33:33.054Z,100.00
2023-09-25T20:35:59.807Z,100.00
2023-09-25T20:38:26.521Z,100.00
2023-09-25T20:40:53.447Z,100.00
2023-09-25T20:43:20.683Z,100.00
2023-09-25T20:45:47.527Z,100.00
2023-09-25T20:48:14.785Z,100.00
2023-09-25T20:50:42.003Z,100.00
2023-09-25T20:53:09.182Z,100.00
2023-09-25T20:55:36.061Z,100.00
2023-09-25T20:58:04.460Z,100.00
2023-09-25T21:00:31.537Z,100.00
2023-09-25T21:02:58.498Z,100.00
2023-09-25T21:05:26.990Z,100.00
2023-09-25T21:07:54.674Z,100.00
2023-09-25T21:10:21.945Z,100.00
2023-09-25T21:12:49.228Z,100.00
2023-09-25T21:15:19.278Z,100.00
2023-09-25T21:17:46.019Z,100.00
2023-09-25T21:20:12.960Z,100.00
2023-09-25T21:22:40.250Z,100.00
2023-09-25T21:25:08.598Z,100.00
2023-09-25T21:27:35.503Z,100.00
2023-09-25T21:30:02.574Z,100.00
2023-09-25T21:32:29.737Z,100.00
2023-09-25T21:34:56.557Z,100.00
2023-09-25T21:37:23.408Z,100.00
2023-09-25T21:39:52.520Z,100.00
2023-09-25T21:42:19.730Z,100.00
2023-09-25T21:44:46.493Z,100.00
2023-09-25T21:47:13.303Z,100.00
2023-09-25T21:49:39.982Z,100.00
2023-09-25T21:52:06.743Z,100.00
2023-09-25T21:54:33.539Z,100.00
2023-09-25T21:57:00.295Z,100.00
2023-09-25T21:59:27.274Z,100.00
2023-09-25T22:01:54.452Z,100.00
2023-09-25T22:04:21.518Z,100.00
2023-09-25T22:06:48.570Z,100.00
2023-09-25T22:09:15.672Z,100.00
2023-09-25T22:11:42.392Z,100.00
2023-09-25T22:14:09.362Z,100.00
2023-09-25T22:16:37.445Z,100.00
2023-09-25T22:19:05.033Z,100.00
2023-09-25T22:21:31.736Z,100.00
2023-09-25T22:23:58.420Z,100.00
2023-09-25T22:26:25.575Z,100.00
2023-09-25T22:28:52.401Z,100.00
2023-09-25T22:31:20.456Z,100.00
2023-09-25T22:33:48.941Z,100.00
2023-09-25T22:36:16.990Z,100.00
2023-09-25T22:38:43.807Z,100.00
2023-09-25T22:41:10.604Z,100.00
2023-09-25T22:43:37.314Z,100.00
2023-09-25T22:46:04.289Z,100.00
2023-09-25T22:48:33.486Z,100.00
2023-09-25T22:51:00.769Z,100.00
2023-09-25T22:53:29.644Z,100.00
2023-09-25T22:56:03.336Z,100.00
2023-09-25T22:58:30.736Z,100.00
2023-09-25T23:00:57.979Z,100.00
2023-09-25T23:03:24.834Z,100.00
2023-09-25T23:05:51.623Z,100.00
2023-09-25T23:08:18.329Z,100.00
2023-09-25T23:10:45.105Z,100.00
2023-09-25T23:13:11.844Z,100.00
2023-09-25T23:15:38.543Z,100.00
2023-09-25T23:18:05.534Z,100.00
2023-09-25T23:20:32.240Z,100.00
2023-09-25T23:22:58.978Z,100.00
2023-09-25T23:25:27.530Z,100.00
2023-09-25T23:27:54.832Z,100.00
2023-09-25T23:30:22.950Z,100.00
2023-09-25T23:32:51.240Z,100.00
2023-09-25T23:35:19.174Z,100.00
2023-09-25T23:37:47.913Z,100.00
2023-09-25T23:40:22.038Z,100.00
2023-09-25T23:42:49.166Z,100.00
2023-09-25T23:45:17.896Z,100.00
2023-09-25T23:47:46.706Z,100.00
2023-09-25T23:50:14.849Z,100.00
2023-09-25T23:52:42.832Z,100.00
2023-09-25T23:55:13.003Z,100.00
2023-09-25T23:57:40.540Z,100.00
